createdAt,value
2023-01-02T00:01:33.922Z,99232.34
2023-01-02T00:06:38.127Z,99225.06
2023-01-02T00:11:41.053Z,99225.75
2023-01-02T00:16:45.314Z,99218.69
2023-01-02T00:21:48.185Z,99219.31
2023-01-02T00:26:51.055Z,99206.59
2023-01-02T00:31:55.326Z,99217.06
2023-01-02T00:36:58.215Z,99207.16
2023-01-02T00:42:01.079Z,99200.03
2023-01-02T00:47:05.420Z,99196.03
2023-01-02T00:52:08.332Z,99198.59
2023-01-02T00:57:11.273Z,99184.84
2023-01-02T01:02:20.569Z,99192.91
2023-01-02T01:07:23.993Z,99194.44
2023-01-02T01:12:26.999Z,99193.94
2023-01-02T01:17:32.867Z,99184.31
2023-01-02T01:22:35.903Z,99185.13
2023-01-02T01:27:39.227Z,99184.50
2023-01-02T01:32:44.662Z,99176.50
2023-01-02T01:37:48.032Z,99172.09
2023-01-02T01:42:52.129Z,99176.47
2023-01-02T01:48:01.648Z,99162.88
2023-01-02T01:53:09.909Z,99161.41
2023-01-02T01:58:17.401Z,99144.94
2023-01-02T02:03:25.670Z,99149.09
2023-01-02T02:08:37.653Z,99144.78
2023-01-02T02:13:40.733Z,99136.84
2023-01-02T02:19:08.204Z,99124.53
2023-01-02T02:24:37.456Z,99121.59
2023-01-02T02:30:04.377Z,99116.31
2023-01-02T02:35:17.063Z,99121.56
2023-01-02T02:40:28.504Z,99101.19
2023-01-02T02:45:41.348Z,99110.00
2023-01-02T02:50:50.952Z,99131.13
2023-01-02T02:55:56.935Z,99125.22
2023-01-02T03:01:07.115Z,99115.03
2023-01-02T03:06:25.925Z,99119.88
2023-01-02T03:11:40.001Z,99123.81
2023-01-02T03:16:48.287Z,99129.50
2023-01-02T03:21:57.503Z,99130.97
2023-01-02T03:27:05.312Z,99125.47
2023-01-02T03:32:13.589Z,99125.75
2023-01-02T03:37:20.484Z,99126.66
2023-01-02T03:42:28.949Z,99111.59
2023-01-02T03:47:39.652Z,99104.34
2023-01-02T03:52:42.650Z,99097.50
2023-01-02T03:57:57.515Z,99080.53
2023-01-02T04:03:07.537Z,99061.28
2023-01-02T04:08:17.731Z,99068.66
2023-01-02T04:13:25.924Z,99073.09
2023-01-02T04:18:34.598Z,99052.78
2023-01-02T04:23:42.102Z,99056.38
2023-01-02T04:28:45.141Z,99055.00
2023-01-02T04:33:52.673Z,99057.28
2023-01-02T04:38:55.557Z,99063.66
2023-01-02T04:43:58.894Z,99072.38
2023-01-02T04:49:03.181Z,99088.63
2023-01-02T04:54:06.287Z,99078.78
2023-01-02T04:59:09.392Z,99076.31
2023-01-02T05:04:13.692Z,99073.94
2023-01-02T05:09:17.198Z,99066.94
2023-01-02T05:14:20.090Z,99059.44
2023-01-02T05:19:24.326Z,99072.38
2023-01-02T05:24:27.470Z,99081.66
2023-01-02T05:29:30.853Z,99092.06
2023-01-02T05:34:35.141Z,99089.91
2023-01-02T05:39:38.081Z,99100.66
2023-01-02T05:44:41.068Z,99098.50
2023-01-02T05:49:45.303Z,99104.25
2023-01-02T05:54:48.194Z,99101.59
2023-01-02T05:59:51.040Z,99096.06
2023-01-02T06:04:55.293Z,99104.59
2023-01-02T06:09:58.185Z,99109.88
2023-01-02T06:15:01.442Z,99117.97
2023-01-02T06:20:06.985Z,99118.38
2023-01-02T06:25:10.273Z,99117.25
2023-01-02T06:30:13.684Z,99115.97
2023-01-02T06:35:17.919Z,99119.88
2023-01-02T06:40:20.852Z,99122.53
2023-01-02T06:45:24.729Z,99126.72
2023-01-02T06:50:34.986Z,99118.22
2023-01-02T06:55:38.323Z,99112.69
2023-01-02T07:00:41.318Z,99122.25
2023-01-02T07:05:45.939Z,99119.84
2023-01-02T07:10:52.861Z,99117.59
2023-01-02T07:15:56.081Z,99125.09
2023-01-02T07:21:00.633Z,99143.19
2023-01-02T07:26:07.153Z,99151.91
2023-01-02T07:31:13.955Z,99157.97
2023-01-02T07:36:22.144Z,99154.00
2023-01-02T07:41:26.770Z,99157.69
2023-01-02T07:46:29.665Z,99163.84
2023-01-02T07:51:34.544Z,99162.78
2023-01-02T07:56:37.538Z,99160.97
2023-01-02T08:01:40.481Z,99173.13
2023-01-02T08:06:45.004Z,99162.69
2023-01-02T08:11:47.877Z,99172.72
2023-01-02T08:16:51.040Z,99174.88
2023-01-02T08:21:55.380Z,99180.50
2023-01-02T08:26:58.542Z,99192.66
2023-01-02T08:32:01.485Z,99190.25
2023-01-02T08:37:05.868Z,99195.78
2023-01-02T08:42:08.925Z,99198.78
2023-01-02T08:47:11.992Z,99195.88
2023-01-02T08:52:16.239Z,99202.31
2023-01-02T08:57:19.117Z,99205.16
2023-01-02T09:02:22.210Z,99204.25
2023-01-02T09:07:26.930Z,99207.25
2023-01-02T09:12:29.834Z,99207.13
2023-01-02T09:17:32.693Z,99205.88
2023-01-02T09:22:37.488Z,99201.94
2023-01-02T09:27:40.381Z,99201.63
2023-01-02T09:32:44.280Z,99219.75
2023-01-02T09:37:48.605Z,99221.00
2023-01-02T09:42:52.725Z,99226.47
2023-01-02T09:48:00.343Z,99231.66
2023-01-02T09:53:05.589Z,99223.97
2023-01-02T09:58:17.177Z,99218.50
2023-01-02T10:03:31.906Z,99212.72
2023-01-02T10:08:44.419Z,99202.19
2023-01-02T10:19:21.255Z,99210.22
2023-01-02T10:24:38.575Z,99202.31
2023-01-02T10:29:47.314Z,99198.88
2023-01-02T10:35:10.605Z,99198.78
2023-01-02T10:40:15.347Z,99188.09
2023-01-02T10:45:18.413Z,99194.50
2023-01-02T10:50:26.595Z,99187.38
2023-01-02T10:55:33.844Z,99187.53
2023-01-02T11:00:37.893Z,99192.81
2023-01-02T11:05:47.089Z,99179.63
2023-01-02T11:10:52.273Z,99173.00
2023-01-02T11:15:58.958Z,99174.13
2023-01-02T11:21:05.105Z,99166.34
2023-01-02T11:26:14.784Z,99172.78
2023-01-02T11:31:19.354Z,99167.94
2023-01-02T11:36:22.436Z,99172.66
2023-01-02T11:41:44.207Z,99163.84
2023-01-02T11:46:47.891Z,99156.03
2023-01-02T11:51:56.102Z,99160.94
2023-01-02T11:57:01.260Z,99167.03
2023-01-02T12:02:14.545Z,99161.75
2023-01-02T12:07:44.268Z,99151.94
2023-01-02T12:13:05.164Z,99150.38
2023-01-02T12:18:20.805Z,99157.22
2023-01-02T12:23:53.018Z,99156.31
2023-01-02T12:29:46.566Z,99154.38
2023-01-02T12:35:09.131Z,99146.63
2023-01-02T12:40:30.173Z,99150.31
2023-01-02T12:45:44.055Z,99150.31
2023-01-02T12:51:10.864Z,99148.47
2023-01-02T12:56:19.858Z,99149.81
2023-01-02T13:01:30.083Z,99150.31
2023-01-02T13:06:47.113Z,99141.03
2023-01-02T13:11:55.944Z,99135.53
2023-01-02T13:17:10.245Z,99142.72
2023-01-02T13:22:22.210Z,99142.94
2023-01-02T13:27:25.797Z,99155.41
2023-01-02T13:32:31.023Z,99158.91
2023-01-02T13:37:35.998Z,99168.22
2023-01-02T13:42:56.541Z,99172.56
2023-01-02T13:48:01.698Z,99174.34
2023-01-02T13:53:08.865Z,99173.84
2023-01-02T13:58:52.918Z,99177.88
2023-01-02T14:04:30.578Z,99174.16
2023-01-02T14:10:03.673Z,99176.22
2023-01-02T14:15:07.635Z,99183.97
2023-01-02T14:20:22.777Z,99197.19
2023-01-02T14:25:27.557Z,99193.44
2023-01-02T14:30:37.540Z,99206.19
2023-01-02T14:35:42.370Z,99216.66
2023-01-02T14:40:48.314Z,99221.75
2023-01-02T14:45:53.040Z,99216.38
2023-01-02T14:50:57.312Z,99226.44
2023-01-02T14:56:06.013Z,99221.97
2023-01-02T15:01:11.959Z,99219.75
2023-01-02T15:06:24.176Z,99232.97
2023-01-02T15:11:45.688Z,99235.28
2023-01-02T15:16:52.805Z,99230.97
2023-01-02T15:21:56.611Z,99234.84
2023-01-02T15:27:15.448Z,99240.97
2023-01-02T15:32:21.713Z,99239.28
2023-01-02T15:37:24.688Z,99244.41
2023-01-02T15:42:46.974Z,99267.00
2023-01-02T15:47:52.562Z,99270.03
2023-01-02T15:52:59.221Z,99275.00
2023-01-02T15:58:21.152Z,99278.91
2023-01-02T16:04:00.165Z,99256.72
2023-01-02T16:09:06.784Z,99282.50
2023-01-02T16:14:22.319Z,99284.53
2023-01-02T16:19:37.076Z,99309.91
2023-01-02T16:24:45.700Z,99311.78
2023-01-02T16:29:53.405Z,99316.38
2023-01-02T16:35:05.986Z,99314.09
2023-01-02T16:41:01.571Z,99320.06
2023-01-02T16:46:12.396Z,99336.03
2023-01-02T16:51:16.787Z,99344.31
2023-01-02T16:56:20.663Z,99341.56
2023-01-02T17:01:25.731Z,99345.38
2023-01-02T17:06:28.856Z,99351.94
2023-01-02T17:11:32.318Z,99350.00
2023-01-02T17:16:36.594Z,99366.66
2023-01-02T17:21:39.619Z,99377.53
2023-01-02T17:26:42.730Z,99379.38
2023-01-02T17:31:47.102Z,99373.63
2023-01-02T17:36:50.065Z,99377.66
2023-01-02T17:41:53.026Z,99390.63
2023-01-02T17:52:20.195Z,99383.06
2023-01-02T17:57:23.117Z,99386.59
2023-01-02T18:02:27.911Z,99381.88
2023-01-02T18:07:31.342Z,99380.63
2023-01-02T18:12:36.259Z,99374.31
2023-01-02T18:17:40.607Z,99385.00
2023-01-02T18:22:49.129Z,99385.78
2023-01-02T18:27:57.324Z,99390.63
2023-01-02T18:33:12.137Z,99399.31
2023-01-02T18:38:20.162Z,99390.63
2023-01-02T18:43:28.106Z,99380.75
2023-01-02T18:48:32.442Z,99380.97
2023-01-02T18:53:39.916Z,99388.63
2023-01-02T18:58:44.617Z,99395.06
2023-01-02T19:03:49.907Z,99381.19
2023-01-02T19:08:52.857Z,99390.91
2023-01-02T19:13:59.032Z,99375.31
2023-01-02T19:19:09.773Z,99392.88
2023-01-02T19:24:18.882Z,99391.47
2023-01-02T19:29:24.629Z,99386.22
2023-01-02T19:34:43.371Z,99382.31
2023-01-02T19:39:49.414Z,99389.66
2023-01-02T19:44:54.219Z,99391.34
2023-01-02T19:49:59.272Z,99392.28
2023-01-02T19:55:02.432Z,99392.38
2023-01-02T20:00:07.571Z,99390.31
2023-01-02T20:05:21.798Z,99392.38
2023-01-02T20:10:25.979Z,99394.25
2023-01-02T20:15:29.294Z,99425.38
2023-01-02T20:20:34.249Z,99447.06
2023-01-02T20:25:37.191Z,99504.53
2023-01-02T20:30:40.115Z,99517.22
2023-01-02T20:35:44.357Z,99551.84
2023-01-02T20:40:47.530Z,99577.19
2023-01-02T20:45:50.422Z,99599.53
2023-01-02T20:50:54.779Z,99611.91
2023-01-02T20:55:57.706Z,99625.59
2023-01-02T21:01:00.634Z,99622.78
2023-01-02T21:06:05.144Z,99641.91
2023-01-02T21:11:08.946Z,99626.41
2023-01-02T21:16:11.898Z,99649.41
2023-01-02T21:21:20.178Z,99670.34
2023-01-02T21:26:23.604Z,99669.44
2023-01-02T21:31:27.401Z,99681.13
2023-01-02T21:36:32.885Z,99676.19
2023-01-02T21:41:53.354Z,99699.31
2023-01-02T21:46:58.007Z,99722.72
2023-01-02T21:52:02.536Z,99715.03
2023-01-02T21:57:05.617Z,99717.84
2023-01-02T22:02:08.819Z,99722.69
2023-01-02T22:07:31.065Z,99717.38
2023-01-02T22:12:35.036Z,99724.88
2023-01-02T22:17:37.967Z,99733.88
2023-01-02T22:22:42.271Z,99738.28
2023-01-02T22:27:45.318Z,99751.72
2023-01-02T22:32:48.210Z,99765.81
2023-01-02T22:37:52.442Z,99778.97
2023-01-02T22:43:01.088Z,99777.19
2023-01-02T22:48:09.104Z,99769.47
2023-01-02T22:53:20.159Z,99773.88
2023-01-02T22:58:23.528Z,99779.28
2023-01-02T23:03:28.952Z,99792.25
2023-01-02T23:08:33.278Z,99788.78
2023-01-02T23:13:37.388Z,99788.78
2023-01-02T23:18:57.700Z,99792.22
2023-01-02T23:24:02.436Z,99807.97
2023-01-02T23:29:07.671Z,99804.44
2023-01-02T23:34:14.257Z,99806.47
2023-01-02T23:39:20.184Z,99810.13
2023-01-02T23:44:24.342Z,99827.81
2023-01-02T23:49:27.266Z,99833.63
2023-01-02T23:54:31.939Z,99843.53
2023-01-02T23:59:34.921Z,99855.25
